Time;durP1;ratioP1;P1;durP2;ratioP2;P2;SDS_P1;SDS_P2;PMS_P1;PMS_P2;Temp;Humidity;BMP_temperature;BMP_pressure;BME280_temperature;BME280_humidity;BME280_pressure;Samples;Min_cycle;Max_cycle;Signal;HPM_P1;HPM_P2
2023/01/09 00:02:21;;;;;;;4.20;1.98;;;;;;;;;;6282061;22;20090;-94
2023/01/09 00:04:49;;;;;;;4.90;1.90;;;;;;;;;;6245476;22;20513;-91
2023/01/09 00:07:16;;;;;;;4.22;1.60;;;;;;;;;;6296248;22;20030;-93
2023/01/09 00:09:44;;;;;;;4.80;2.28;;;;;;;;;;6296370;22;20016;-93
2023/01/09 00:12:13;;;;;;;2.92;1.55;;;;;;;;;;6291942;22;20565;-91
2023/01/09 00:14:45;;;;;;;3.13;1.80;;;;;;;;;;6270092;22;20030;-90
2023/01/09 00:17:13;;;;;;;4.13;1.77;;;;;;;;;;6244630;22;20023;-91
2023/01/09 00:20:06;;;;;;;3.72;1.80;;;;;;;;;;6282352;22;20011;-91
2023/01/09 00:22:59;;;;;;;3.28;1.48;;;;;;;;;;6277244;22;20023;-92
2023/01/09 00:26:04;;;;;;;3.85;1.92;;;;;;;;;;6266515;22;20012;-93
2023/01/09 00:28:32;;;;;;;3.97;2.03;;;;;;;;;;6266345;22;20020;-94
2023/01/09 00:31:02;;;;;;;3.92;1.80;;;;;;;;;;6264344;22;20077;-91
2023/01/09 00:34:03;;;;;;;7.55;2.38;;;;;;;;;;6287273;22;20012;-92
2023/01/09 00:36:56;;;;;;;3.38;1.83;;;;;;;;;;6255895;22;20027;-91
2023/01/09 00:39:25;;;;;;;3.28;1.75;;;;;;;;;;6287929;22;20080;-95
2023/01/09 00:41:54;;;;;;;2.75;1.50;;;;;;;;;;6290883;22;20030;-92
2023/01/09 00:44:53;;;;;;;4.68;1.98;;;;;;;;;;6288506;22;20015;-92
2023/01/09 00:47:26;;;;;;;5.80;1.90;;;;;;;;;;6246798;22;20051;-91
2023/01/09 00:49:59;;;;;;;4.95;1.70;;;;;;;;;;6284742;22;20026;-94
2023/01/09 00:52:30;;;;;;;3.78;1.70;;;;;;;;;;6285055;22;20019;-92
2023/01/09 00:55:23;;;;;;;3.58;2.00;;;;;;;;;;6287415;22;20000;-91
2023/01/09 00:57:51;;;;;;;3.63;2.00;;;;;;;;;;6270587;22;20073;-90
2023/01/09 01:00:23;;;;;;;3.47;1.85;;;;;;;;;;6284014;22;20436;-91
2023/01/09 01:02:51;;;;;;;4.30;1.90;;;;;;;;;;6286432;22;20016;-93
2023/01/09 01:08:12;;;;;;;4.13;2.20;;;;;;;;;;6284630;22;20090;-91
2023/01/09 01:10:42;;;;;;;3.67;1.95;;;;;;;;;;6286227;22;20016;-94
2023/01/09 01:13:11;;;;;;;3.78;1.70;;;;;;;;;;6255952;22;20026;-92
2023/01/09 01:16:05;;;;;;;3.88;2.08;;;;;;;;;;6288739;22;20014;-92
2023/01/09 01:18:33;;;;;;;4.55;1.90;;;;;;;;;;6294539;22;20015;-93
2023/01/09 01:21:09;;;;;;;3.03;1.63;;;;;;;;;;6303090;22;20020;-93
2023/01/09 01:23:45;;;;;;;3.15;1.67;;;;;;;;;;6288874;22;20019;-92
2023/01/09 01:26:15;;;;;;;4.13;2.15;;;;;;;;;;6288210;22;20020;-92
2023/01/09 01:28:43;;;;;;;3.70;1.92;;;;;;;;;;6290392;22;20019;-95
2023/01/09 01:31:16;;;;;;;5.47;1.70;;;;;;;;;;6288116;22;20022;-94
2023/01/09 01:33:45;;;;;;;5.00;2.25;;;;;;;;;;6269284;22;20057;-92
2023/01/09 01:36:37;;;;;;;3.55;2.25;;;;;;;;;;6301129;22;20019;-93
2023/01/09 01:39:05;;;;;;;4.13;2.10;;;;;;;;;;6288148;22;20359;-93
2023/01/09 01:41:33;;;;;;;3.60;1.98;;;;;;;;;;6249820;22;20049;-91
2023/01/09 01:44:06;;;;;;;8.10;2.38;;;;;;;;;;6247932;22;20455;-91
2023/01/09 01:46:39;;;;;;;4.45;1.98;;;;;;;;;;6288946;22;20459;-91
2023/01/09 01:49:14;;;;;;;4.10;2.13;;;;;;;;;;6283351;22;20062;-90
2023/01/09 01:54:37;;;;;;;3.97;1.83;;;;;;;;;;6251491;22;20039;-91
2023/01/09 01:57:06;;;;;;;3.50;1.80;;;;;;;;;;6286269;22;20118;-91
2023/01/09 01:59:48;;;;;;;3.40;1.80;;;;;;;;;;6251772;22;20035;-91
2023/01/09 02:02:42;;;;;;;3.60;1.63;;;;;;;;;;6251568;22;20015;-91
2023/01/09 02:05:59;;;;;;;4.45;1.65;;;;;;;;;;6287533;22;20463;-91
2023/01/09 02:08:31;;;;;;;6.45;2.10;;;;;;;;;;6287959;22;20020;-92
2023/01/09 02:11:00;;;;;;;4.63;2.10;;;;;;;;;;6286784;22;20015;-92
2023/01/09 02:13:27;;;;;;;4.57;1.90;;;;;;;;;;6289498;22;20016;-91
2023/01/09 02:16:12;;;;;;;3.60;1.80;;;;;;;;;;6277249;22;20054;-91
2023/01/09 02:18:57;;;;;;;4.40;2.00;;;;;;;;;;6276735;22;20020;-92
2023/01/09 02:22:13;;;;;;;4.88;2.00;;;;;;;;;;6302817;22;20023;-92
2023/01/09 02:25:11;;;;;;;4.25;2.15;;;;;;;;;;6287068;22;20015;-92
2023/01/09 02:27:58;;;;;;;3.40;1.63;;;;;;;;;;6302386;22;20016;-92
2023/01/09 02:30:47;;;;;;;6.45;2.00;;;;;;;;;;6289002;22;20026;-93
2023/01/09 02:33:32;;;;;;;5.38;2.10;;;;;;;;;;6287497;22;20020;-92
2023/01/09 02:36:10;;;;;;;4.07;2.22;;;;;;;;;;6287000;22;20012;-92
2023/01/09 02:39:15;;;;;;;3.85;2.00;;;;;;;;;;6287222;22;20007;-91
2023/01/09 02:42:16;;;;;;;5.47;2.00;;;;;;;;;;6286992;22;20014;-92
2023/01/09 02:44:45;;;;;;;5.18;2.15;;;;;;;;;;6250856;22;20020;-91
2023/01/09 02:47:43;;;;;;;5.20;2.25;;;;;;;;;;6286475;22;20011;-91
2023/01/09 02:50:29;;;;;;;6.18;1.83;;;;;;;;;;6286889;22;20034;-92
2023/01/09 02:53:27;;;;;;;3.80;2.22;;;;;;;;;;6262963;22;20012;-92
2023/01/09 02:56:23;;;;;;;5.28;1.98;;;;;;;;;;6287159;22;20078;-91
2023/01/09 02:59:25;;;;;;;4.25;2.13;;;;;;;;;;6288312;22;20042;-92
2023/01/09 03:02:28;;;;;;;3.88;2.00;;;;;;;;;;6287473;22;20019;-92
2023/01/09 03:05:05;;;;;;;3.38;2.03;;;;;;;;;;6224943;23;20020;-92
2023/01/09 03:07:54;;;;;;;5.28;2.35;;;;;;;;;;6224695;23;20071;-91
2023/01/09 03:10:54;;;;;;;4.85;2.20;;;;;;;;;;6188762;23;20025;-92
2023/01/09 03:14:02;;;;;;;5.75;1.98;;;;;;;;;;6200007;23;20012;-91
2023/01/09 03:16:37;;;;;;;3.17;1.88;;;;;;;;;;6225416;23;20357;-92
2023/01/09 03:19:15;;;;;;;6.05;2.08;;;;;;;;;;6189513;23;20021;-91
2023/01/09 03:22:08;;;;;;;3.80;2.20;;;;;;;;;;6224534;23;20020;-92
2023/01/09 03:24:46;;;;;;;5.53;2.67;;;;;;;;;;6199971;23;20530;-92
2023/01/09 03:27:13;;;;;;;4.25;2.22;;;;;;;;;;6199984;23;20024;-92
2023/01/09 03:29:41;;;;;;;4.72;2.25;;;;;;;;;;6199683;23;20024;-92
2023/01/09 03:32:13;;;;;;;4.20;2.08;;;;;;;;;;6201006;23;20571;-91
2023/01/09 03:34:41;;;;;;;6.88;2.10;;;;;;;;;;6217965;23;20067;-92
2023/01/09 03:37:08;;;;;;;4.07;2.00;;;;;;;;;;6200049;23;20029;-92
2023/01/09 03:39:36;;;;;;;3.83;2.05;;;;;;;;;;6189186;23;20021;-91
2023/01/09 03:42:31;;;;;;;3.90;1.90;;;;;;;;;;6268270;22;20026;-92
2023/01/09 03:44:58;;;;;;;3.90;2.05;;;;;;;;;;6276696;22;20024;-92
2023/01/09 03:47:26;;;;;;;4.45;2.20;;;;;;;;;;6288500;22;20075;-92
2023/01/09 03:49:54;;;;;;;4.50;2.20;;;;;;;;;;6289049;22;20355;-92
2023/01/09 03:52:26;;;;;;;4.65;2.33;;;;;;;;;;6278831;22;20051;-92
2023/01/09 03:54:54;;;;;;;4.75;2.50;;;;;;;;;;6278527;22;20016;-92
2023/01/09 03:57:23;;;;;;;3.45;1.90;;;;;;;;;;6278398;22;20478;-91
2023/01/09 04:00:18;;;;;;;5.32;2.53;;;;;;;;;;6289558;22;20042;-92
2023/01/09 04:02:50;;;;;;;3.60;2.22;;;;;;;;;;6289670;22;20436;-91
2023/01/09 04:05:44;;;;;;;5.72;2.13;;;;;;;;;;6288379;22;20008;-92
2023/01/09 04:08:17;;;;;;;6.00;1.95;;;;;;;;;;6290560;22;20042;-93
2023/01/09 04:10:46;;;;;;;4.50;2.00;;;;;;;;;;6288595;22;20038;-92
2023/01/09 04:13:15;;;;;;;5.82;2.20;;;;;;;;;;6289760;22;20015;-92
2023/01/09 04:15:43;;;;;;;5.32;1.88;;;;;;;;;;6252686;22;20023;-92
2023/01/09 04:18:11;;;;;;;3.65;2.08;;;;;;;;;;6289289;22;20085;-91
2023/01/09 04:20:45;;;;;;;4.05;2.35;;;;;;;;;;6288020;22;20035;-92
2023/01/09 04:23:13;;;;;;;5.30;2.17;;;;;;;;;;6252926;22;20062;-91
2023/01/09 04:25:46;;;;;;;3.35;1.90;;;;;;;;;;6287755;22;20065;-91
2023/01/09 04:28:15;;;;;;;5.50;1.90;;;;;;;;;;6287577;22;20015;-91
2023/01/09 04:33:36;;;;;;;5.15;2.08;;;;;;;;;;6286411;22;20513;-92
2023/01/09 04:36:05;;;;;;;3.85;1.95;;;;;;;;;;6287180;22;20020;-91
2023/01/09 04:38:32;;;;;;;3.72;2.03;;;;;;;;;;6251172;22;20126;-91
2023/01/09 04:44:10;;;;;;;3.45;1.88;;;;;;;;;;6288168;22;20019;-92
2023/01/09 04:47:09;;;;;;;5.63;2.50;;;;;;;;;;6258652;22;20016;-92
2023/01/09 04:49:36;;;;;;;6.65;2.38;;;;;;;;;;6276830;22;20026;-91
2023/01/09 04:52:05;;;;;;;3.83;2.00;;;;;;;;;;6277154;22;20426;-91
2023/01/09 04:54:42;;;;;;;3.38;1.85;;;;;;;;;;6287962;22;20448;-92
2023/01/09 04:57:15;;;;;;;4.18;2.00;;;;;;;;;;6287155;22;20091;-92
2023/01/09 04:59:48;;;;;;;4.05;2.00;;;;;;;;;;6252976;22;20046;-92
2023/01/09 05:02:19;;;;;;;4.72;1.77;;;;;;;;;;6285060;22;20410;-91
2023/01/09 05:04:47;;;;;;;3.67;2.00;;;;;;;;;;6286305;22;20015;-92
2023/01/09 05:07:15;;;;;;;5.35;1.70;;;;;;;;;;6261165;22;20065;-91
2023/01/09 05:09:46;;;;;;;4.40;2.00;;;;;;;;;;6288003;22;20444;-93
2023/01/09 05:12:15;;;;;;;3.75;1.73;;;;;;;;;;6286871;22;20035;-92
2023/01/09 05:15:09;;;;;;;4.43;2.10;;;;;;;;;;6288889;22;20100;-93
2023/01/09 05:17:37;;;;;;;2.83;1.75;;;;;;;;;;6261876;22;20073;-92
2023/01/09 05:20:28;;;;;;;4.93;2.05;;;;;;;;;;6288635;22;20016;-91
2023/01/09 05:23:23;;;;;;;4.50;1.83;;;;;;;;;;6288027;22;20428;-92
2023/01/09 05:26:18;;;;;;;3.85;2.03;;;;;;;;;;6257339;22;20051;-92
2023/01/09 05:28:46;;;;;;;6.15;1.90;;;;;;;;;;6261531;22;20094;-93
2023/01/09 05:31:15;;;;;;;3.95;1.52;;;;;;;;;;6251294;22;20023;-93
2023/01/09 05:34:11;;;;;;;4.05;1.88;;;;;;;;;;6270588;22;20061;-92
2023/01/09 05:36:39;;;;;;;6.18;1.90;;;;;;;;;;6287055;22;20521;-92
2023/01/09 05:39:07;;;;;;;4.47;1.80;;;;;;;;;;6286990;22;20391;-92
2023/01/09 05:41:34;;;;;;;6.07;1.83;;;;;;;;;;6275180;22;20023;-92
2023/01/09 05:44:03;;;;;;;4.38;1.98;;;;;;;;;;6275925;22;20107;-92
2023/01/09 05:46:31;;;;;;;3.40;1.60;;;;;;;;;;6286079;22;20442;-92
2023/01/09 05:48:58;;;;;;;4.05;1.48;;;;;;;;;;6287635;22;20019;-91
2023/01/09 05:51:27;;;;;;;4.07;2.17;;;;;;;;;;6287719;22;20091;-92
2023/01/09 05:54:18;;;;;;;3.53;1.65;;;;;;;;;;6286750;22;20011;-92
2023/01/09 05:56:47;;;;;;;3.53;1.83;;;;;;;;;;6286497;22;20015;-92
2023/01/09 05:59:19;;;;;;;3.40;1.92;;;;;;;;;;6227024;22;20394;-93
2023/01/09 06:01:46;;;;;;;5.80;2.13;;;;;;;;;;6285435;22;20020;-95
2023/01/09 06:04:15;;;;;;;3.92;1.90;;;;;;;;;;6225809;22;20023;-91
2023/01/09 06:06:48;;;;;;;6.70;2.15;;;;;;;;;;6285252;22;20038;-90
2023/01/09 06:09:16;;;;;;;5.57;2.03;;;;;;;;;;6225048;22;20044;-91
2023/01/09 06:11:45;;;;;;;5.03;1.98;;;;;;;;;;6286129;22;20527;-92
2023/01/09 06:14:17;;;;;;;3.55;1.70;;;;;;;;;;6286510;22;20020;-92
2023/01/09 06:16:45;;;;;;;2.95;1.58;;;;;;;;;;6250016;22;20115;-93
2023/01/09 06:19:13;;;;;;;2.92;1.27;;;;;;;;;;6283379;22;20019;-92
2023/01/09 06:22:04;;;;;;;4.60;1.75;;;;;;;;;;6284289;22;20016;-92
2023/01/09 06:24:33;;;;;;;3.20;1.58;;;;;;;;;;6286402;22;20085;-91
2023/01/09 06:27:05;;;;;;;4.70;1.80;;;;;;;;;;6286129;22;20020;-90
2023/01/09 06:29:32;;;;;;;2.88;1.50;;;;;;;;;;6287832;22;20024;-91
2023/01/09 06:32:05;;;;;;;3.30;1.42;;;;;;;;;;6285100;22;20012;-92
2023/01/09 06:34:33;;;;;;;5.03;1.55;;;;;;;;;;6259546;22;20066;-91
2023/01/09 06:37:00;;;;;;;4.45;1.60;;;;;;;;;;6285907;22;20339;-92
2023/01/09 06:39:28;;;;;;;3.53;1.77;;;;;;;;;;6286377;22;20016;-92
2023/01/09 06:41:57;;;;;;;4.03;2.33;;;;;;;;;;6284246;22;20400;-91
2023/01/09 06:44:24;;;;;;;4.97;2.10;;;;;;;;;;6285749;22;20065;-90
2023/01/09 06:46:53;;;;;;;5.18;2.33;;;;;;;;;;6248568;22;20019;-89
2023/01/09 06:49:22;;;;;;;10.63;2.38;;;;;;;;;;6251081;22;20016;-92
2023/01/09 06:52:14;;;;;;;3.92;2.28;;;;;;;;;;6283266;22;20081;-91
2023/01/09 06:54:42;;;;;;;4.03;2.00;;;;;;;;;;6283477;22;20098;-92
2023/01/09 06:57:11;;;;;;;4.18;2.45;;;;;;;;;;6247174;22;20090;-92
2023/01/09 06:59:38;;;;;;;7.72;2.63;;;;;;;;;;6247511;22;20410;-93
2023/01/09 07:02:17;;;;;;;4.43;2.45;;;;;;;;;;6284232;22;20103;-92
2023/01/09 07:04:45;;;;;;;4.05;2.13;;;;;;;;;;6283241;22;20024;-92
2023/01/09 07:07:13;;;;;;;4.43;2.25;;;;;;;;;;6284417;22;20103;-92
2023/01/09 07:09:41;;;;;;;4.68;2.70;;;;;;;;;;6283533;22;20022;-91
2023/01/09 07:12:33;;;;;;;5.47;2.60;;;;;;;;;;6283101;22;20011;-93
2023/01/09 07:15:01;;;;;;;6.90;2.85;;;;;;;;;;6283249;22;20016;-93
2023/01/09 07:17:28;;;;;;;5.53;2.45;;;;;;;;;;6284281;22;20038;-92
2023/01/09 07:19:57;;;;;;;5.30;2.70;;;;;;;;;;6284921;22;20106;-91
2023/01/09 07:22:30;;;;;;;6.72;2.95;;;;;;;;;;6285280;22;20091;-92
2023/01/09 07:24:58;;;;;;;6.30;3.25;;;;;;;;;;6247573;22;20030;-91
2023/01/09 07:27:50;;;;;;;5.55;3.10;;;;;;;;;;6283313;22;20015;-91
2023/01/09 07:30:19;;;;;;;6.07;2.95;;;;;;;;;;6283389;22;20019;-92
2023/01/09 07:32:46;;;;;;;7.40;3.45;;;;;;;;;;6285259;22;20035;-93
2023/01/09 07:35:38;;;;;;;7.38;3.72;;;;;;;;;;6284305;22;20027;-92
2023/01/09 07:38:07;;;;;;;6.57;3.53;;;;;;;;;;6283460;22;20016;-92
2023/01/09 07:40:35;;;;;;;5.95;3.28;;;;;;;;;;6285541;22;20020;-92
2023/01/09 07:43:06;;;;;;;7.18;3.63;;;;;;;;;;6286041;22;20058;-92
2023/01/09 07:45:34;;;;;;;5.75;3.38;;;;;;;;;;6259402;22;20128;-92
2023/01/09 07:48:03;;;;;;;4.85;2.92;;;;;;;;;;6283417;22;20024;-91
2023/01/09 07:50:36;;;;;;;4.60;2.80;;;;;;;;;;6285412;22;20081;-92
2023/01/09 07:53:29;;;;;;;6.13;3.13;;;;;;;;;;6255662;22;20060;-91
2023/01/09 07:55:57;;;;;;;7.18;3.67;;;;;;;;;;6286889;22;20355;-91
2023/01/09 07:58:34;;;;;;;5.95;3.10;;;;;;;;;;6284736;22;20448;-91
2023/01/09 08:01:03;;;;;;;16.48;3.70;;;;;;;;;;6285523;22;20046;-92
2023/01/09 08:03:32;;;;;;;7.18;3.50;;;;;;;;;;6249332;22;20024;-91
2023/01/09 08:06:25;;;;;;;6.90;3.80;;;;;;;;;;6286993;22;20012;-92
2023/01/09 08:08:57;;;;;;;7.55;3.83;;;;;;;;;;6285509;22;20061;-92
2023/01/09 08:11:25;;;;;;;7.78;4.00;;;;;;;;;;6285894;22;20043;-90
2023/01/09 08:13:53;;;;;;;7.90;4.13;;;;;;;;;;6286755;22;20023;-91
2023/01/09 08:16:20;;;;;;;9.18;4.40;;;;;;;;;;6275742;22;20347;-92
2023/01/09 08:18:49;;;;;;;7.00;4.40;;;;;;;;;;6286388;22;20022;-92
2023/01/09 08:21:22;;;;;;;10.65;4.57;;;;;;;;;;6276064;22;20023;-92
2023/01/09 08:23:49;;;;;;;9.07;4.88;;;;;;;;;;6286190;22;20325;-92
2023/01/09 08:26:18;;;;;;;7.03;4.30;;;;;;;;;;6260726;22;20073;-92
2023/01/09 08:28:47;;;;;;;9.75;4.43;;;;;;;;;;6260236;22;20020;-92
2023/01/09 08:31:15;;;;;;;10.43;3.78;;;;;;;;;;6287149;22;20023;-91
2023/01/09 08:33:47;;;;;;;11.18;4.93;;;;;;;;;;6283621;22;20012;-91
2023/01/09 08:36:20;;;;;;;9.27;4.70;;;;;;;;;;6285174;22;20042;-91
2023/01/09 08:38:53;;;;;;;8.25;4.07;;;;;;;;;;6276636;22;20483;-91
2023/01/09 08:47:05;;;;;;;11.70;4.60;;;;;;;;;;6288528;22;20019;-92
2023/01/09 08:49:34;;;;;;;7.90;4.82;;;;;;;;;;6261906;22;20536;-91
2023/01/09 08:52:12;;;;;;;15.10;5.10;;;;;;;;;;6262544;22;20042;-92
2023/01/09 08:55:05;;;;;;;12.45;5.07;;;;;;;;;;6287979;22;20019;-93
2023/01/09 08:57:49;;;;;;;14.07;5.82;;;;;;;;;;6252708;22;20329;-93
2023/01/09 09:00:23;;;;;;;10.75;5.15;;;;;;;;;;6288315;22;20042;-91
2023/01/09 09:03:16;;;;;;;9.45;5.20;;;;;;;;;;6275751;22;20020;-92
2023/01/09 09:05:44;;;;;;;11.25;5.18;;;;;;;;;;6287574;22;20061;-92
2023/01/09 09:08:13;;;;;;;10.73;4.93;;;;;;;;;;6252647;22;20026;-91
2023/01/09 09:10:41;;;;;;;13.90;5.07;;;;;;;;;;6287510;22;20094;-92
2023/01/09 09:13:09;;;;;;;12.00;5.65;;;;;;;;;;6287546;22;20452;-91
2023/01/09 09:15:37;;;;;;;13.30;5.68;;;;;;;;;;6276977;22;20019;-91
2023/01/09 09:18:28;;;;;;;9.95;5.35;;;;;;;;;;6287576;22;20015;-91
2023/01/09 09:20:56;;;;;;;11.00;5.10;;;;;;;;;;6288827;22;20024;-92
2023/01/09 09:23:28;;;;;;;12.65;5.85;;;;;;;;;;6262341;22;20016;-91
2023/01/09 09:29:13;;;;;;;13.45;5.35;;;;;;;;;;6288321;22;20017;-91
2023/01/09 09:31:41;;;;;;;11.48;5.60;;;;;;;;;;6287694;22;20020;-91
2023/01/09 09:34:15;;;;;;;12.48;6.00;;;;;;;;;;6286103;22;20104;-91
2023/01/09 09:36:46;;;;;;;13.93;5.88;;;;;;;;;;6262378;22;20065;-93
2023/01/09 09:39:18;;;;;;;14.02;6.07;;;;;;;;;;6286778;22;20015;-91
2023/01/09 09:45:22;;;;;;;13.23;5.72;;;;;;;;;;6286223;22;20031;-91
2023/01/09 09:48:33;;;;;;;13.25;5.90;;;;;;;;;;6286839;22;20024;-92
2023/01/09 09:51:22;;;;;;;16.05;5.88;;;;;;;;;;6286660;22;20024;-90
2023/01/09 09:54:17;;;;;;;15.77;6.00;;;;;;;;;;6250359;22;20085;-93
2023/01/09 09:56:55;;;;;;;12.68;6.07;;;;;;;;;;6250228;22;20012;-92
2023/01/09 09:59:43;;;;;;;13.27;5.65;;;;;;;;;;6287754;22;20065;-92
2023/01/09 10:02:31;;;;;;;12.35;5.47;;;;;;;;;;6260750;22;20074;-92
2023/01/09 10:05:16;;;;;;;11.63;5.13;;;;;;;;;;6288109;22;20016;-91
2023/01/09 10:07:48;;;;;;;9.35;4.88;;;;;;;;;;6251166;22;20020;-92
2023/01/09 10:10:35;;;;;;;13.38;5.82;;;;;;;;;;6286214;22;20058;-91
2023/01/09 10:16:16;;;;;;;12.10;5.78;;;;;;;;;;6287347;22;20011;-92
2023/01/09 10:19:27;;;;;;;14.45;6.25;;;;;;;;;;6285560;22;20025;-92
2023/01/09 10:22:27;;;;;;;16.45;6.65;;;;;;;;;;6260574;22;20035;-91
2023/01/09 10:25:19;;;;;;;15.38;5.75;;;;;;;;;;6285953;22;20019;-92
2023/01/09 10:28:07;;;;;;;13.95;5.20;;;;;;;;;;6287732;22;20450;-91
2023/01/09 10:30:54;;;;;;;9.52;4.63;;;;;;;;;;6286742;22;20020;-92
2023/01/09 10:34:07;;;;;;;12.32;5.10;;;;;;;;;;6254898;22;20024;-92
2023/01/09 10:36:43;;;;;;;10.98;5.05;;;;;;;;;;6285939;22;20054;-91
2023/01/09 10:39:24;;;;;;;10.13;4.85;;;;;;;;;;6287460;22;20011;-92
2023/01/09 10:42:00;;;;;;;9.93;4.80;;;;;;;;;;6286955;22;20016;-93
2023/01/09 10:45:14;;;;;;;10.52;5.30;;;;;;;;;;6287392;22;20031;-92
2023/01/09 10:47:43;;;;;;;15.45;5.63;;;;;;;;;;6267896;22;20095;-92
2023/01/09 10:50:20;;;;;;;15.32;6.57;;;;;;;;;;6287050;22;20016;-92
2023/01/09 10:53:20;;;;;;;13.20;5.95;;;;;;;;;;6285026;22;20026;-91
2023/01/09 10:55:49;;;;;;;16.02;6.65;;;;;;;;;;6275201;22;20359;-93
2023/01/09 10:58:22;;;;;;;15.38;6.55;;;;;;;;;;6285741;22;20463;-91
2023/01/09 11:00:57;;;;;;;11.75;6.22;;;;;;;;;;6285939;22;20023;-92
2023/01/09 11:03:30;;;;;;;11.25;6.10;;;;;;;;;;6284244;22;20073;-91
2023/01/09 11:06:07;;;;;;;19.90;8.20;;;;;;;;;;6260790;22;20016;-91
2023/01/09 11:09:00;;;;;;;12.75;7.00;;;;;;;;;;6254705;22;20027;-91
2023/01/09 11:11:51;;;;;;;14.38;6.00;;;;;;;;;;6275171;22;20351;-92
2023/01/09 11:14:30;;;;;;;14.38;6.82;;;;;;;;;;6286468;22;20016;-90
2023/01/09 11:17:01;;;;;;;13.10;5.88;;;;;;;;;;6274642;22;20016;-92
2023/01/09 11:19:32;;;;;;;11.82;5.35;;;;;;;;;;6284791;22;20026;-91
2023/01/09 11:22:08;;;;;;;11.32;5.70;;;;;;;;;;6286316;22;20020;-92
2023/01/09 11:24:35;;;;;;;9.77;5.47;;;;;;;;;;6285095;22;20726;-92
2023/01/09 11:27:12;;;;;;;13.32;5.20;;;;;;;;;;6285637;22;20022;-91
2023/01/09 11:30:05;;;;;;;10.82;4.32;;;;;;;;;;6261536;22;20042;-92
2023/01/09 11:32:33;;;;;;;15.35;4.15;;;;;;;;;;6286098;22;20019;-92
2023/01/09 11:35:06;;;;;;;11.27;3.65;;;;;;;;;;6286533;22;20108;-92
2023/01/09 11:37:35;;;;;;;9.90;3.25;;;;;;;;;;6284810;22;20748;-91
2023/01/09 11:40:04;;;;;;;9.45;3.13;;;;;;;;;;6275376;22;20024;-91
2023/01/09 11:42:51;;;;;;;7.30;3.03;;;;;;;;;;6286420;22;20020;-92
2023/01/09 11:45:50;;;;;;;7.78;2.72;;;;;;;;;;6272943;22;20031;-91
2023/01/09 11:48:47;;;;;;;9.63;2.85;;;;;;;;;;6273900;22;20020;-92
2023/01/09 11:51:21;;;;;;;7.97;2.88;;;;;;;;;;6286247;22;20016;-91
2023/01/09 11:54:14;;;;;;;9.20;3.13;;;;;;;;;;6275333;22;20026;-92
2023/01/09 11:56:41;;;;;;;10.77;2.67;;;;;;;;;;6249309;22;20091;-91
2023/01/09 11:59:34;;;;;;;5.47;2.50;;;;;;;;;;6284717;22;20020;-91
2023/01/09 12:02:21;;;;;;;11.93;2.80;;;;;;;;;;6286203;22;20103;-92
2023/01/09 12:05:50;;;;;;;9.38;2.70;;;;;;;;;;6286334;22;20039;-91
2023/01/09 12:09:02;;;;;;;8.93;2.70;;;;;;;;;;6273600;22;20019;-93
2023/01/09 12:11:52;;;;;;;5.38;2.60;;;;;;;;;;6260435;22;20084;-92
2023/01/09 12:14:48;;;;;;;10.85;3.13;;;;;;;;;;6244189;22;20043;-91
2023/01/09 12:17:43;;;;;;;6.55;2.90;;;;;;;;;;6249099;22;20034;-90
2023/01/09 12:20:24;;;;;;;5.45;2.75;;;;;;;;;;6250635;22;20024;-89
2023/01/09 12:23:26;;;;;;;11.90;3.65;;;;;;;;;;6285810;22;20019;-89
2023/01/09 12:25:54;;;;;;;13.35;3.58;;;;;;;;;;6251513;22;20657;-88
2023/01/09 12:28:44;;;;;;;8.63;3.25;;;;;;;;;;6287728;22;20046;-89
2023/01/09 12:31:56;;;;;;;9.57;3.63;;;;;;;;;;6275318;22;20050;-89
2023/01/09 12:34:44;;;;;;;12.73;4.03;;;;;;;;;;6287743;22;20016;-90
2023/01/09 12:37:58;;;;;;;10.68;3.85;;;;;;;;;;6275673;22;20085;-89
2023/01/09 12:41:06;;;;;;;10.27;4.13;;;;;;;;;;6263183;22;20027;-88
2023/01/09 12:44:14;;;;;;;10.20;4.45;;;;;;;;;;6273539;22;20020;-90
2023/01/09 12:47:18;;;;;;;12.85;5.75;;;;;;;;;;6286903;22;20030;-89
2023/01/09 12:50:00;;;;;;;13.07;4.50;;;;;;;;;;6288790;22;20024;-90
2023/01/09 12:52:47;;;;;;;12.07;4.43;;;;;;;;;;6288845;22;20035;-89
2023/01/09 12:55:19;;;;;;;9.27;4.28;;;;;;;;;;6288068;22;20026;-91
2023/01/09 12:57:53;;;;;;;9.68;4.47;;;;;;;;;;6287514;22;20008;-90
2023/01/09 13:00:38;;;;;;;12.88;3.92;;;;;;;;;;6262282;22;20019;-89
2023/01/09 13:03:16;;;;;;;9.30;4.10;;;;;;;;;;6284640;22;20038;-88
2023/01/09 13:05:49;;;;;;;16.08;5.20;;;;;;;;;;6285516;22;20019;-89
2023/01/09 13:08:51;;;;;;;8.27;3.88;;;;;;;;;;6284632;22;20008;-90
2023/01/09 13:11:33;;;;;;;9.90;4.05;;;;;;;;;;6273861;22;20030;-90
2023/01/09 13:14:45;;;;;;;9.52;4.88;;;;;;;;;;6288078;22;20024;-89
2023/01/09 13:17:23;;;;;;;9.57;4.75;;;;;;;;;;6284182;22;20015;-88
2023/01/09 13:19:52;;;;;;;8.52;4.07;;;;;;;;;;6248099;22;20038;-89
2023/01/09 13:22:24;;;;;;;9.02;4.28;;;;;;;;;;6282895;22;20098;-89
2023/01/09 13:25:18;;;;;;;13.25;4.88;;;;;;;;;;6282254;22;20019;-89
2023/01/09 13:28:15;;;;;;;10.30;4.55;;;;;;;;;;6271771;22;20022;-90
2023/01/09 13:30:57;;;;;;;7.13;4.18;;;;;;;;;;6266813;22;20019;-89
2023/01/09 13:33:32;;;;;;;16.08;5.90;;;;;;;;;;6281956;22;20082;-90
2023/01/09 13:36:29;;;;;;;15.55;5.30;;;;;;;;;;6283470;22;20011;-89
2023/01/09 13:38:59;;;;;;;15.00;5.35;;;;;;;;;;6257679;22;20018;-90
2023/01/09 13:44:17;;;;;;;10.65;5.13;;;;;;;;;;6284524;22;20167;-87
2023/01/09 13:46:47;;;;;;;9.32;5.30;;;;;;;;;;6283001;22;20790;-88
2023/01/09 13:49:46;;;;;;;10.35;5.22;;;;;;;;;;6247325;22;20019;-88
2023/01/09 13:52:24;;;;;;;10.95;6.10;;;;;;;;;;6284801;22;20019;-88
2023/01/09 13:54:59;;;;;;;10.63;5.10;;;;;;;;;;6283065;22;20027;-88
2023/01/09 13:58:03;;;;;;;14.68;5.78;;;;;;;;;;6284398;22;20090;-88
2023/01/09 14:00:33;;;;;;;12.35;5.32;;;;;;;;;;6284638;22;20023;-88
2023/01/09 14:03:07;;;;;;;10.75;5.43;;;;;;;;;;6282927;22;20096;-88
2023/01/09 14:05:34;;;;;;;15.65;4.90;;;;;;;;;;6283830;22;20748;-88
2023/01/09 14:08:09;;;;;;;10.68;4.75;;;;;;;;;;6282911;22;20011;-88
2023/01/09 14:10:47;;;;;;;11.18;4.95;;;;;;;;;;6282838;22;20061;-88
2023/01/09 14:13:39;;;;;;;10.10;4.63;;;;;;;;;;6222823;22;20029;-88
2023/01/09 14:16:13;;;;;;;10.85;4.82;;;;;;;;;;6281666;22;20023;-88
2023/01/09 14:18:50;;;;;;;12.98;4.93;;;;;;;;;;6283410;22;20050;-88
2023/01/09 14:21:19;;;;;;;10.18;5.60;;;;;;;;;;6282783;22;20061;-88
2023/01/09 14:24:01;;;;;;;11.00;5.43;;;;;;;;;;6283005;22;20459;-88
2023/01/09 14:26:43;;;;;;;11.77;4.97;;;;;;;;;;6282104;22;20404;-88
2023/01/09 14:29:38;;;;;;;11.13;4.60;;;;;;;;;;6307799;22;20023;-88
2023/01/09 14:32:22;;;;;;;8.38;4.00;;;;;;;;;;6245600;22;20024;-88
2023/01/09 14:34:56;;;;;;;7.30;4.40;;;;;;;;;;6220863;22;20031;-88
2023/01/09 14:37:26;;;;;;;12.40;4.38;;;;;;;;;;6283516;22;20095;-88
2023/01/09 14:39:54;;;;;;;11.68;4.32;;;;;;;;;;6282339;22;20085;-88
2023/01/09 14:42:24;;;;;;;8.43;4.57;;;;;;;;;;6245888;22;20031;-88
2023/01/09 14:44:59;;;;;;;10.60;4.68;;;;;;;;;;6283818;22;20019;-88
2023/01/09 14:47:29;;;;;;;11.70;6.82;;;;;;;;;;6245624;22;20420;-88
2023/01/09 14:50:12;;;;;;;17.30;6.90;;;;;;;;;;6282301;22;20019;-88
2023/01/09 14:52:48;;;;;;;14.98;6.53;;;;;;;;;;6282784;22;20043;-88
2023/01/09 14:55:28;;;;;;;14.55;6.15;;;;;;;;;;6282663;22;20022;-88
2023/01/09 14:58:09;;;;;;;13.48;4.95;;;;;;;;;;6272230;22;20019;-88
2023/01/09 15:01:04;;;;;;;13.73;5.18;;;;;;;;;;6284345;22;20015;-88
2023/01/09 15:04:01;;;;;;;10.60;5.07;;;;;;;;;;6271874;22;20471;-88
2023/01/09 15:06:34;;;;;;;9.68;4.53;;;;;;;;;;6283847;22;20023;-88
2023/01/09 15:09:20;;;;;;;8.48;4.60;;;;;;;;;;6284320;22;20011;-87
2023/01/09 15:11:50;;;;;;;10.32;4.40;;;;;;;;;;6272690;22;20073;-88
2023/01/09 15:14:38;;;;;;;7.53;4.10;;;;;;;;;;6283345;22;20041;-88
2023/01/09 15:17:18;;;;;;;11.98;5.03;;;;;;;;;;6282741;22;20015;-88
2023/01/09 15:19:47;;;;;;;10.50;4.72;;;;;;;;;;6283128;22;20073;-87
2023/01/09 15:22:31;;;;;;;11.95;4.90;;;;;;;;;;6245212;22;20030;-88
2023/01/09 15:25:31;;;;;;;12.52;4.88;;;;;;;;;;6307176;22;20023;-88
2023/01/09 15:29:00;;;;;;;9.50;5.00;;;;;;;;;;6253066;22;20026;-88
2023/01/09 15:31:33;;;;;;;11.40;4.32;;;;;;;;;;6281775;22;20027;-88
2023/01/09 15:34:02;;;;;;;11.80;4.50;;;;;;;;;;6272166;22;20488;-88
2023/01/09 15:36:53;;;;;;;11.65;5.20;;;;;;;;;;6273027;22;20011;-87
2023/01/09 15:39:30;;;;;;;11.05;5.20;;;;;;;;;;6285601;22;20082;-88
2023/01/09 15:45:22;;;;;;;10.55;5.80;;;;;;;;;;6284481;22;20016;-89
2023/01/09 15:48:29;;;;;;;8.68;4.70;;;;;;;;;;6285922;22;20012;-89
2023/01/09 15:51:03;;;;;;;10.93;5.53;;;;;;;;;;6285440;22;20011;-89
2023/01/09 15:53:31;;;;;;;10.10;5.47;;;;;;;;;;6287322;22;20023;-88
2023/01/09 15:59:28;;;;;;;7.88;4.32;;;;;;;;;;6283304;22;20047;-89
2023/01/09 16:04:51;;;;;;;9.63;5.03;;;;;;;;;;6281801;22;20182;-90
2023/01/09 16:07:20;;;;;;;9.80;5.07;;;;;;;;;;6251639;22;20024;-90
2023/01/09 16:09:51;;;;;;;7.63;4.50;;;;;;;;;;6295690;22;20432;-90
2023/01/09 16:12:43;;;;;;;8.27;4.80;;;;;;;;;;6254875;22;20059;-90
2023/01/09 16:15:16;;;;;;;11.15;4.57;;;;;;;;;;6256009;22;20411;-90
2023/01/09 16:18:17;;;;;;;9.23;4.30;;;;;;;;;;6289393;22;20427;-90
2023/01/09 16:20:45;;;;;;;7.75;3.53;;;;;;;;;;6278014;22;20027;-90
2023/01/09 16:23:31;;;;;;;7.28;3.97;;;;;;;;;;6259756;22;20799;-92
2023/01/09 16:26:10;;;;;;;8.55;3.78;;;;;;;;;;6292566;22;20031;-90
2023/01/09 16:28:41;;;;;;;8.38;4.00;;;;;;;;;;6263411;22;20016;-90